Time;durP1;ratioP1;P1;durP2;ratioP2;P2;SDS_P1;SDS_P2;PMS_P1;PMS_P2;Temp;Humidity;BMP_temperature;BMP_pressure;BME280_temperature;BME280_humidity;BME280_pressure;Samples;Min_cycle;Max_cycle;Signal;HPM_P1;HPM_P2
2021/11/20 00:01:54;;;;;;;21.33;12.05;;;7.00;47.00;;;;;;5078549;28;20119;-69
2021/11/20 00:04:23;;;;;;;20.33;12.48;;;7.00;47.80;;;;;;5079411;28;20052;-68
2021/11/20 00:06:56;;;;;;;23.77;13.70;;;6.90;47.80;;;;;;5084102;28;20044;-69
2021/11/20 00:09:27;;;;;;;20.52;12.90;;;6.90;47.90;;;;;;5084431;28;20036;-68
2021/11/20 00:12:02;;;;;;;24.20;12.90;;;7.00;47.90;;;;;;5075889;28;20048;-69
2021/11/20 00:14:32;;;;;;;21.13;11.93;;;7.00;47.90;;;;;;5080107;28;20579;-69
2021/11/20 00:17:02;;;;;;;18.08;11.38;;;6.90;47.80;;;;;;5079850;28;20047;-69
2021/11/20 00:19:32;;;;;;;21.73;13.30;;;7.00;47.10;;;;;;5080803;28;20131;-69
2021/11/20 00:22:06;;;;;;;22.75;12.88;;;7.00;46.90;;;;;;5077772;28;20056;-68
2021/11/20 00:24:42;;;;;;;25.70;13.63;;;7.00;46.50;;;;;;5084486;28;20036;-69
2021/11/20 00:27:18;;;;;;;21.42;13.30;;;7.00;46.70;;;;;;5080081;28;20483;-67
2021/11/20 00:29:59;;;;;;;19.88;13.20;;;6.90;46.40;;;;;;5083795;28;20036;-68
2021/11/20 00:32:30;;;;;;;20.80;12.60;;;6.90;46.50;;;;;;5081082;28;20495;-68
2021/11/20 00:35:05;;;;;;;20.30;12.75;;;6.90;46.30;;;;;;5081074;28;20074;-69
2021/11/20 00:37:37;;;;;;;21.30;13.32;;;7.00;46.60;;;;;;5081303;28;20516;-67
2021/11/20 00:40:10;;;;;;;21.25;13.07;;;6.90;46.20;;;;;;5082053;28;20054;-67
2021/11/20 00:42:38;;;;;;;22.77;14.18;;;6.90;46.60;;;;;;5075750;28;20132;-67
2021/11/20 00:45:09;;;;;;;22.50;14.52;;;6.90;46.60;;;;;;5080351;28;20039;-68
2021/11/20 00:47:37;;;;;;;23.35;15.07;;;6.80;46.30;;;;;;5080773;28;20058;-68
2021/11/20 00:50:08;;;;;;;24.65;14.60;;;6.90;47.00;;;;;;5081060;28;20050;-68
2021/11/20 00:52:41;;;;;;;24.33;15.15;;;6.90;46.10;;;;;;5079068;28;20389;-69
2021/11/20 00:55:13;;;;;;;23.90;14.10;;;6.90;45.80;;;;;;5079724;28;20491;-68
2021/11/20 00:57:43;;;;;;;24.83;15.68;;;7.00;45.70;;;;;;5082687;28;20043;-68
2021/11/20 01:00:17;;;;;;;25.83;14.23;;;6.90;45.80;;;;;;5077128;28;21193;-69
2021/11/20 01:02:45;;;;;;;25.65;15.18;;;6.80;45.70;;;;;;5075378;28;20522;-68
2021/11/20 01:05:18;;;;;;;25.58;14.57;;;6.80;46.50;;;;;;5083204;28;20037;-68
2021/11/20 01:07:48;;;;;;;23.85;13.55;;;6.80;45.90;;;;;;5083072;28;20056;-68
2021/11/20 01:10:19;;;;;;;22.95;13.40;;;6.80;46.10;;;;;;5084867;28;20051;-68
2021/11/20 01:12:51;;;;;;;21.95;13.43;;;6.90;45.60;;;;;;5084693;28;20068;-68
2021/11/20 01:15:24;;;;;;;22.00;12.77;;;6.90;45.00;;;;;;5080494;28;20051;-68
2021/11/20 01:17:54;;;;;;;24.65;13.82;;;6.90;44.60;;;;;;5085294;28;20036;-68
2021/11/20 01:20:22;;;;;;;21.70;13.55;;;6.90;44.50;;;;;;5079309;28;20222;-67
2021/11/20 01:22:52;;;;;;;26.38;13.40;;;6.90;44.30;;;;;;5084210;28;20122;-68
2021/11/20 01:25:22;;;;;;;22.23;13.48;;;7.00;44.00;;;;;;5082686;28;20510;-68
2021/11/20 01:28:06;;;;;;;19.92;12.23;;;6.90;43.80;;;;;;5088235;28;20050;-67
2021/11/20 01:30:35;;;;;;;20.50;12.10;;;6.90;43.80;;;;;;5082795;28;20556;-68
2021/11/20 01:33:08;;;;;;;20.33;11.80;;;6.90;43.80;;;;;;5080891;28;20044;-68
2021/11/20 01:35:36;;;;;;;19.50;11.50;;;6.90;43.70;;;;;;5075583;28;20052;-67
2021/11/20 01:38:09;;;;;;;19.15;12.10;;;6.90;43.20;;;;;;5083133;28;20055;-68
2021/11/20 01:40:40;;;;;;;20.25;11.60;;;6.90;43.10;;;;;;5082248;28;20763;-67
2021/11/20 01:43:09;;;;;;;20.95;11.77;;;6.90;43.40;;;;;;5085447;28;20113;-68
2021/11/20 01:45:51;;;;;;;18.02;11.00;;;6.90;42.70;;;;;;5085062;28;20542;-68
2021/11/20 01:48:51;;;;;;;17.38;9.98;;;6.90;42.60;;;;;;5085122;28;20052;-67
2021/11/20 01:51:22;;;;;;;16.75;10.13;;;6.90;42.70;;;;;;5075497;28;20050;-68
2021/11/20 01:54:08;;;;;;;17.52;10.93;;;6.90;42.40;;;;;;5080306;28;20036;-68
2021/11/20 01:56:43;;;;;;;17.65;10.25;;;6.90;42.50;;;;;;5083306;28;20064;-69
2021/11/20 01:59:19;;;;;;;17.50;10.98;;;6.90;42.40;;;;;;5085595;28;20090;-68
2021/11/20 02:01:54;;;;;;;17.38;10.27;;;6.90;42.20;;;;;;5082229;28;20129;-69
2021/11/20 02:04:29;;;;;;;19.05;10.68;;;7.00;42.60;;;;;;5082481;28;20051;-68
2021/11/20 02:07:11;;;;;;;17.35;10.02;;;6.90;41.40;;;;;;5080761;28;20051;-68
2021/11/20 02:09:50;;;;;;;18.55;9.70;;;7.00;41.60;;;;;;5083117;28;20044;-68
2021/11/20 02:12:21;;;;;;;16.48;10.05;;;7.00;41.50;;;;;;5080556;28;20052;-67
2021/11/20 02:14:52;;;;;;;16.75;10.65;;;7.00;41.00;;;;;;5086002;28;20043;-68
2021/11/20 02:17:26;;;;;;;17.45;10.82;;;7.00;41.10;;;;;;5079493;28;20075;-68
2021/11/20 02:20:00;;;;;;;19.70;10.30;;;6.90;40.40;;;;;;5080015;28;20624;-68
2021/11/20 02:22:33;;;;;;;16.85;10.52;;;6.90;40.90;;;;;;5085568;28;20115;-68
2021/11/20 02:25:01;;;;;;;16.50;10.80;;;7.00;41.20;;;;;;5086847;28;20071;-69
2021/11/20 02:27:33;;;;;;;17.95;10.60;;;6.90;41.00;;;;;;5083231;28;20121;-68
2021/11/20 02:30:22;;;;;;;21.10;10.98;;;6.90;41.60;;;;;;5083579;28;20063;-70
2021/11/20 02:32:53;;;;;;;18.50;10.77;;;6.90;41.20;;;;;;5083547;28;20097;-67
2021/11/20 02:35:28;;;;;;;19.70;11.38;;;6.90;41.50;;;;;;5084067;28;20178;-68
2021/11/20 02:38:01;;;;;;;18.90;11.63;;;6.90;41.50;;;;;;5076903;28;20043;-68
2021/11/20 02:40:30;;;;;;;17.38;11.18;;;6.90;41.40;;;;;;5081573;28;20131;-67
2021/11/20 02:42:59;;;;;;;21.77;11.45;;;6.80;41.60;;;;;;5082098;28;20059;-68
2021/11/20 02:45:31;;;;;;;17.50;11.05;;;6.90;41.80;;;;;;5086588;28;20122;-67
2021/11/20 02:48:01;;;;;;;20.00;12.00;;;6.90;41.80;;;;;;5082159;28;20143;-68
2021/11/20 02:50:38;;;;;;;18.63;11.48;;;6.90;41.80;;;;;;5079670;28;20408;-68
2021/11/20 02:53:13;;;;;;;16.67;10.35;;;6.90;40.80;;;;;;5082590;28;20059;-68
2021/11/20 02:55:44;;;;;;;19.63;12.07;;;6.90;40.50;;;;;;5084014;28;20044;-68
2021/11/20 02:58:12;;;;;;;16.67;11.48;;;6.90;40.70;;;;;;5082449;28;20804;-68
2021/11/20 03:00:41;;;;;;;20.02;11.60;;;6.90;40.70;;;;;;5084415;28;20752;-68
2021/11/20 03:03:10;;;;;;;19.40;11.45;;;7.00;40.50;;;;;;5081483;28;20051;-68
2021/11/20 03:05:40;;;;;;;18.45;11.65;;;6.90;39.90;;;;;;5080839;28;20621;-70
2021/11/20 03:08:08;;;;;;;16.65;11.15;;;6.90;39.60;;;;;;5085231;28;20052;-68
2021/11/20 03:10:38;;;;;;;19.65;11.68;;;7.00;39.50;;;;;;5080781;28;20066;-69
2021/11/20 03:13:06;;;;;;;20.10;11.82;;;6.90;38.90;;;;;;5071389;28;20107;-68
2021/11/20 03:15:37;;;;;;;20.42;12.68;;;6.90;39.10;;;;;;5084210;28;20490;-68
2021/11/20 03:18:15;;;;;;;21.90;12.80;;;6.90;39.60;;;;;;5082055;28;20375;-68
2021/11/20 03:20:44;;;;;;;20.88;12.73;;;6.90;39.60;;;;;;5076072;28;20044;-68
2021/11/20 03:23:17;;;;;;;21.60;13.05;;;6.90;39.40;;;;;;5082338;28;20055;-67
2021/11/20 03:25:48;;;;;;;19.92;12.48;;;6.80;39.60;;;;;;5079091;28;20414;-68
2021/11/20 03:28:20;;;;;;;19.73;12.77;;;6.80;39.60;;;;;;5085009;28;20054;-68
2021/11/20 03:30:49;;;;;;;21.60;11.85;;;6.90;39.60;;;;;;5082540;28;20138;-68
2021/11/20 03:33:19;;;;;;;19.75;12.95;;;6.90;38.70;;;;;;5079622;28;20033;-67
2021/11/20 03:35:50;;;;;;;20.10;12.57;;;6.90;40.30;;;;;;5079511;28;20048;-70
2021/11/20 03:38:21;;;;;;;21.35;12.73;;;6.90;39.40;;;;;;5080385;28;20048;-70
2021/11/20 03:40:54;;;;;;;20.77;11.77;;;6.90;39.90;;;;;;5079406;28;20449;-69
2021/11/20 03:43:24;;;;;;;25.70;13.55;;;6.80;40.40;;;;;;5080536;28;20036;-68
2021/11/20 03:45:56;;;;;;;23.77;14.55;;;6.90;40.40;;;;;;5071114;28;20127;-70
2021/11/20 03:48:26;;;;;;;21.73;13.88;;;6.90;40.00;;;;;;5080596;28;20052;-69
2021/11/20 03:50:58;;;;;;;24.95;15.40;;;6.90;39.20;;;;;;5083205;28;20044;-68
2021/11/20 03:53:30;;;;;;;24.73;14.25;;;7.00;39.50;;;;;;5081803;28;20052;-68
2021/11/20 03:55:58;;;;;;;21.23;14.10;;;6.90;39.50;;;;;;5084541;28;20067;-68
2021/11/20 03:58:27;;;;;;;23.58;14.52;;;6.90;39.70;;;;;;5090523;27;20071;-69
2021/11/20 04:00:59;;;;;;;22.30;12.80;;;6.80;39.80;;;;;;5077203;28;20040;-69
2021/11/20 04:03:30;;;;;;;22.25;13.93;;;6.80;40.40;;;;;;5085930;28;20054;-68
2021/11/20 04:06:02;;;;;;;23.30;14.00;;;6.80;39.50;;;;;;5079605;28;20067;-68
2021/11/20 04:08:32;;;;;;;23.45;13.73;;;6.80;40.00;;;;;;5077714;28;20131;-69
2021/11/20 04:11:00;;;;;;;25.00;14.73;;;6.80;39.60;;;;;;5054062;28;20508;-68
2021/11/20 04:13:32;;;;;;;24.48;14.57;;;6.80;39.60;;;;;;5051253;28;20068;-68
2021/11/20 04:16:05;;;;;;;27.70;16.38;;;6.80;39.50;;;;;;5080494;28;20110;-70
2021/11/20 04:18:36;;;;;;;28.30;15.43;;;6.80;39.60;;;;;;5085647;28;20062;-68
2021/11/20 04:21:04;;;;;;;22.98;14.00;;;6.80;40.00;;;;;;5079263;28;20556;-68
2021/11/20 04:23:35;;;;;;;24.15;13.50;;;6.80;40.10;;;;;;5082258;28;20123;-68
2021/11/20 04:26:04;;;;;;;23.67;14.15;;;6.80;40.50;;;;;;5081211;28;20046;-68
2021/11/20 04:28:33;;;;;;;26.40;15.10;;;6.80;40.50;;;;;;5084182;28;20046;-68
2021/11/20 04:31:06;;;;;;;22.98;14.32;;;6.80;41.10;;;;;;5080737;28;20188;-68
2021/11/20 04:33:36;;;;;;;25.60;14.63;;;6.80;40.70;;;;;;5084882;28;20060;-68
2021/11/20 04:36:06;;;;;;;25.48;14.75;;;6.70;40.90;;;;;;5080856;28;20052;-68
2021/11/20 04:38:34;;;;;;;25.42;14.77;;;6.80;41.50;;;;;;5080674;28;20036;-68
2021/11/20 04:41:04;;;;;;;21.67;13.32;;;6.80;40.50;;;;;;5079737;28;20048;-68
2021/11/20 04:43:36;;;;;;;27.10;15.05;;;6.80;41.10;;;;;;5077759;28;20060;-67
2021/11/20 04:46:04;;;;;;;24.52;14.20;;;6.80;40.60;;;;;;5085380;28;20044;-67
2021/11/20 04:48:33;;;;;;;23.48;13.75;;;6.80;40.80;;;;;;5084508;28;20050;-68
2021/11/20 04:51:05;;;;;;;23.90;14.32;;;6.80;40.80;;;;;;5084124;28;20124;-68
2021/11/20 04:53:35;;;;;;;26.58;14.13;;;6.80;40.90;;;;;;5089198;28;20078;-67
2021/11/20 04:56:06;;;;;;;23.13;13.82;;;6.80;40.80;;;;;;5085889;28;20156;-67
2021/11/20 04:58:38;;;;;;;22.92;13.32;;;6.80;39.80;;;;;;5086257;28;20544;-67
2021/11/20 05:01:09;;;;;;;26.92;14.35;;;6.80;40.10;;;;;;5083294;28;20054;-68
2021/11/20 05:03:39;;;;;;;25.85;13.98;;;6.80;40.60;;;;;;5083813;28;20521;-67
2021/11/20 05:06:09;;;;;;;22.25;13.43;;;6.80;40.30;;;;;;5084179;28;20044;-68
2021/11/20 05:08:38;;;;;;;23.33;13.15;;;6.80;39.40;;;;;;5089934;28;20048;-68
2021/11/20 05:11:09;;;;;;;24.52;13.40;;;6.80;39.20;;;;;;5082474;28;20457;-68
2021/11/20 05:13:37;;;;;;;22.48;13.35;;;6.80;39.30;;;;;;5078879;28;20064;-67
2021/11/20 05:16:11;;;;;;;24.17;13.18;;;6.80;39.50;;;;;;5083229;28;20055;-67
2021/11/20 05:18:40;;;;;;;26.80;13.98;;;6.80;39.50;;;;;;5085278;28;20044;-67
2021/11/20 05:21:14;;;;;;;23.08;13.35;;;6.80;40.00;;;;;;5082369;28;20411;-69
2021/11/20 05:23:46;;;;;;;25.63;14.13;;;6.70;39.50;;;;;;5084638;28;20098;-68
2021/11/20 05:26:17;;;;;;;21.13;13.35;;;6.70;40.40;;;;;;5083826;28;20036;-68
2021/11/20 05:28:53;;;;;;;22.38;12.73;;;6.80;40.10;;;;;;5085569;28;20059;-68
2021/11/20 05:31:21;;;;;;;20.33;12.73;;;6.70;39.70;;;;;;5081329;28;20075;-68
2021/11/20 05:33:52;;;;;;;24.30;13.95;;;6.80;40.00;;;;;;5086615;28;20285;-68
2021/11/20 05:36:30;;;;;;;26.80;14.95;;;6.70;39.50;;;;;;5082622;28;20056;-68
2021/11/20 05:39:00;;;;;;;22.75;13.20;;;6.80;40.20;;;;;;5087234;28;20059;-68
2021/11/20 05:41:29;;;;;;;23.42;14.38;;;6.80;39.70;;;;;;5084454;28;20082;-68
2021/11/20 05:43:57;;;;;;;23.70;13.20;;;6.80;39.60;;;;;;5086642;28;20051;-68
2021/11/20 05:46:27;;;;;;;23.52;14.07;;;6.80;39.50;;;;;;5084057;28;20492;-68
2021/11/20 05:48:57;;;;;;;22.60;13.68;;;6.80;39.10;;;;;;5087191;28;20054;-68
2021/11/20 05:51:27;;;;;;;22.58;13.32;;;6.80;38.80;;;;;;5084097;28;20105;-67
2021/11/20 05:53:56;;;;;;;24.52;14.25;;;6.80;38.60;;;;;;5081578;28;20515;-67
2021/11/20 05:56:27;;;;;;;20.23;12.80;;;6.70;38.80;;;;;;5086142;28;20086;-67
2021/11/20 05:59:18;;;;;;;23.48;13.70;;;6.80;39.50;;;;;;5087181;28;20044;-68
2021/11/20 06:01:46;;;;;;;23.60;13.73;;;6.70;39.20;;;;;;5080608;28;20040;-67
2021/11/20 06:04:16;;;;;;;23.75;13.02;;;6.70;39.70;;;;;;5086555;28;20502;-67
2021/11/20 06:06:49;;;;;;;21.67;12.50;;;6.70;39.50;;;;;;5081724;28;20530;-68
2021/11/20 06:09:17;;;;;;;21.52;13.20;;;6.80;39.10;;;;;;5083306;28;20051;-67
2021/11/20 06:11:46;;;;;;;20.77;12.38;;;6.80;39.10;;;;;;5083831;28;20044;-67
2021/11/20 06:14:17;;;;;;;25.42;13.02;;;6.70;39.20;;;;;;5085792;28;20125;-66
2021/11/20 06:16:47;;;;;;;22.45;12.98;;;6.80;39.40;;;;;;5076743;28;20464;-67
2021/11/20 06:19:15;;;;;;;20.58;12.40;;;6.70;40.40;;;;;;5087064;28;20048;-67
2021/11/20 06:21:43;;;;;;;27.08;13.23;;;6.70;39.20;;;;;;5077984;28;20052;-67
2021/11/20 06:24:16;;;;;;;22.88;13.43;;;6.80;39.50;;;;;;5084725;28;20047;-68
2021/11/20 06:26:46;;;;;;;21.52;12.65;;;6.80;39.10;;;;;;5083753;28;20050;-67
2021/11/20 06:29:15;;;;;;;22.63;13.60;;;6.80;39.10;;;;;;5083230;28;20044;-69
2021/11/20 06:31:47;;;;;;;20.48;12.57;;;6.80;38.40;;;;;;5081768;28;20085;-68
2021/11/20 06:34:15;;;;;;;23.63;11.95;;;6.80;38.00;;;;;;5085857;28;20044;-67
2021/11/20 06:36:45;;;;;;;23.58;13.23;;;6.80;38.80;;;;;;5083287;28;20040;-67
2021/11/20 06:39:17;;;;;;;22.15;12.80;;;6.80;38.80;;;;;;5085313;28;20064;-67
2021/11/20 06:41:46;;;;;;;21.90;12.85;;;6.70;38.90;;;;;;5082868;28;20040;-67
2021/11/20 06:44:15;;;;;;;22.45;13.63;;;6.70;38.70;;;;;;5084349;28;20562;-67
2021/11/20 06:46:44;;;;;;;21.00;13.23;;;6.70;39.30;;;;;;5083993;28;20047;-68
2021/11/20 06:49:13;;;;;;;22.48;13.18;;;6.70;39.10;;;;;;5085384;28;20556;-68
2021/11/20 06:51:42;;;;;;;21.95;12.63;;;6.70;39.40;;;;;;5078927;28;20052;-68
2021/11/20 06:54:10;;;;;;;24.48;13.50;;;6.60;39.40;;;;;;5085345;28;20505;-68
2021/11/20 06:56:52;;;;;;;21.55;12.55;;;6.60;39.90;;;;;;5077532;28;20491;-68
2021/11/20 07:02:20;;;;;;;23.05;12.90;;;6.60;39.70;;;;;;5083090;28;20147;-68
2021/11/20 07:04:49;;;;;;;22.90;12.45;;;6.60;40.40;;;;;;5087128;28;20054;-68
2021/11/20 07:07:20;;;;;;;22.08;12.73;;;6.70;39.80;;;;;;5081695;28;20601;-68
2021/11/20 07:09:49;;;;;;;22.17;12.95;;;6.70;38.90;;;;;;5084761;28;20506;-67
2021/11/20 07:12:22;;;;;;;22.45;13.45;;;6.70;39.10;;;;;;5081412;28;20070;-68
2021/11/20 07:14:50;;;;;;;20.58;12.95;;;6.70;38.80;;;;;;5079667;28;20043;-69
2021/11/20 07:17:20;;;;;;;22.75;12.02;;;6.70;38.30;;;;;;5082293;28;20454;-68
2021/11/20 07:19:48;;;;;;;20.50;12.02;;;6.80;38.30;;;;;;5077944;28;20040;-69
2021/11/20 07:22:16;;;;;;;21.27;13.93;;;6.80;37.60;;;;;;5080704;28;20130;-67
2021/11/20 07:24:48;;;;;;;22.20;12.88;;;6.90;37.30;;;;;;5083475;28;20047;-67
2021/11/20 07:27:19;;;;;;;23.95;13.23;;;6.80;37.20;;;;;;5084014;28;21758;-68
2021/11/20 07:29:51;;;;;;;21.20;12.88;;;6.90;36.70;;;;;;5081233;28;20063;-68
2021/11/20 07:32:19;;;;;;;23.70;13.18;;;6.90;35.50;;;;;;5081923;28;20058;-67
2021/11/20 07:34:47;;;;;;;20.88;12.05;;;7.00;35.50;;;;;;5083815;28;20113;-68
2021/11/20 07:37:15;;;;;;;23.90;13.77;;;7.00;35.50;;;;;;5082183;28;20057;-67
2021/11/20 07:39:43;;;;;;;21.40;12.07;;;7.10;35.60;;;;;;5081518;28;20071;-67
2021/11/20 07:42:15;;;;;;;21.08;13.30;;;7.10;35.60;;;;;;5079950;28;20499;-68
2021/11/20 07:44:44;;;;;;;20.30;12.32;;;7.10;35.40;;;;;;5079211;28;20040;-67
2021/11/20 07:47:13;;;;;;;17.83;11.73;;;7.20;35.10;;;;;;5082073;28;20281;-68
2021/11/20 07:49:43;;;;;;;17.45;11.23;;;7.10;33.50;;;;;;5078526;28;20036;-68
2021/11/20 07:52:11;;;;;;;19.17;11.60;;;7.20;33.50;;;;;;5080218;28;20044;-68
2021/11/20 07:54:41;;;;;;;20.33;11.40;;;7.10;33.00;;;;;;5083935;28;20044;-68
2021/11/20 07:57:09;;;;;;;22.10;12.18;;;7.10;33.90;;;;;;5083154;28;20040;-68
2021/11/20 07:59:39;;;;;;;19.80;12.65;;;7.20;33.70;;;;;;5082755;28;20093;-67
2021/11/20 08:02:08;;;;;;;21.73;12.40;;;7.30;32.80;;;;;;5079389;28;20056;-67
2021/11/20 08:04:38;;;;;;;18.98;11.20;;;7.30;32.20;;;;;;5082519;28;20036;-68
2021/11/20 08:07:08;;;;;;;19.25;11.35;;;7.20;32.00;;;;;;5082069;28;20109;-68
2021/11/20 08:09:37;;;;;;;20.58;11.93;;;7.40;31.60;;;;;;5083305;28;21194;-68
2021/11/20 08:12:07;;;;;;;20.35;12.05;;;7.40;31.30;;;;;;5080701;28;20789;-68
2021/11/20 08:14:36;;;;;;;19.77;11.60;;;7.40;31.50;;;;;;5080790;28;20126;-68
2021/11/20 08:17:04;;;;;;;17.90;11.85;;;7.50;31.10;;;;;;5080491;28;20150;-67
2021/11/20 08:19:33;;;;;;;18.48;11.30;;;7.50;29.90;;;;;;5087449;28;20235;-67
2021/11/20 08:22:06;;;;;;;24.35;12.65;;;7.50;29.80;;;;;;5085805;28;20047;-67
2021/11/20 08:24:35;;;;;;;18.58;10.90;;;7.50;29.50;;;;;;5085022;28;20043;-68
2021/11/20 08:27:09;;;;;;;17.67;11.55;;;7.50;29.10;;;;;;5083723;28;20062;-69
2021/11/20 08:29:38;;;;;;;18.13;11.02;;;7.70;29.10;;;;;;5087353;28;20044;-67
2021/11/20 08:32:10;;;;;;;19.15;11.38;;;7.70;28.20;;;;;;5082854;28;20068;-68
2021/11/20 08:34:42;;;;;;;19.75;12.32;;;7.70;28.20;;;;;;5083385;28;20040;-67
2021/11/20 08:37:16;;;;;;;20.30;11.48;;;7.70;28.10;;;;;;5087566;28;20126;-67
2021/11/20 08:39:44;;;;;;;18.90;10.80;;;7.90;28.30;;;;;;5082470;28;20049;-68
2021/11/20 08:42:15;;;;;;;20.33;11.73;;;7.90;27.10;;;;;;5087520;28;20044;-67
2021/11/20 08:44:43;;;;;;;20.75;12.25;;;7.90;25.90;;;;;;5086419;28;20051;-68
2021/11/20 08:47:16;;;;;;;18.98;11.25;;;7.90;26.90;;;;;;5082476;28;20062;-67
2021/11/20 08:49:44;;;;;;;17.58;11.45;;;8.10;26.10;;;;;;5087876;28;20629;-67
2021/11/20 08:52:14;;;;;;;19.45;11.07;;;8.00;25.00;;;;;;5087487;28;20058;-68
2021/11/20 08:54:44;;;;;;;17.23;11.57;;;7.90;24.90;;;;;;5085041;28;20044;-69
2021/11/20 08:57:13;;;;;;;19.35;11.25;;;8.00;25.20;;;;;;5085645;28;20123;-68
2021/11/20 08:59:42;;;;;;;24.15;12.15;;;8.00;25.50;;;;;;5084313;28;20496;-68
2021/11/20 09:02:15;;;;;;;19.45;11.80;;;8.00;25.50;;;;;;5086842;28;20126;-67
2021/11/20 09:04:48;;;;;;;21.00;11.52;;;8.00;24.30;;;;;;5086376;28;20093;-68
2021/11/20 09:07:21;;;;;;;20.98;12.27;;;8.10;24.40;;;;;;5081307;28;20143;-67
2021/11/20 09:09:55;;;;;;;21.80;12.52;;;8.20;23.00;;;;;;5083528;28;20040;-68
2021/11/20 09:12:28;;;;;;;18.75;11.57;;;8.40;21.80;;;;;;5088230;28;20435;-67
2021/11/20 09:14:59;;;;;;;21.10;11.25;;;8.40;21.80;;;;;;5086911;28;20104;-67
2021/11/20 09:17:29;;;;;;;20.50;11.23;;;8.40;22.90;;;;;;5081253;28;20122;-67
2021/11/20 09:20:03;;;;;;;21.23;11.95;;;8.30;21.70;;;;;;5086047;28;20079;-68
2021/11/20 09:22:32;;;;;;;19.83;11.43;;;8.30;22.70;;;;;;5084558;28;20641;-68
2021/11/20 09:25:06;;;;;;;17.58;11.93;;;8.30;23.00;;;;;;5083245;28;20136;-66
2021/11/20 09:27:54;;;;;;;19.00;12.43;;;8.40;22.60;;;;;;5085900;28;20052;-67
2021/11/20 09:30:27;;;;;;;19.02;11.98;;;8.40;21.80;;;;;;5079058;28;20071;-66
2021/11/20 09:32:58;;;;;;;20.77;12.48;;;8.50;21.80;;;;;;5083734;28;20091;-68
2021/11/20 09:35:29;;;;;;;22.52;12.25;;;8.60;21.10;;;;;;5086858;28;20507;-68
2021/11/20 09:38:01;;;;;;;18.13;11.40;;;8.60;21.20;;;;;;5085331;28;20040;-67
2021/11/20 09:40:37;;;;;;;20.35;12.20;;;8.40;21.10;;;;;;5083241;27;20588;-68
2021/11/20 09:43:09;;;;;;;20.10;12.18;;;8.50;21.70;;;;;;5071499;28;20503;-67
2021/11/20 09:45:40;;;;;;;18.60;10.77;;;8.50;21.70;;;;;;5085244;28;20526;-68
2021/11/20 09:48:14;;;;;;;18.80;11.30;;;8.50;21.60;;;;;;5085098;28;20823;-67
2021/11/20 09:51:04;;;;;;;20.50;12.52;;;8.40;21.80;;;;;;5084666;28;20047;-68
2021/11/20 09:53:34;;;;;;;16.70;10.80;;;8.30;21.50;;;;;;5082919;28;20055;-68
2021/11/20 09:56:21;;;;;;;17.98;11.38;;;8.30;21.70;;;;;;5083635;28;20039;-67
2021/11/20 09:58:55;;;;;;;17.95;11.20;;;8.30;22.30;;;;;;5086834;28;20074;-67
2021/11/20 10:01:32;;;;;;;16.90;11.20;;;8.40;21.80;;;;;;5079116;28;20052;-67
2021/11/20 10:04:15;;;;;;;18.17;11.88;;;8.30;22.00;;;;;;5083215;28;20094;-67
2021/11/20 10:06:47;;;;;;;15.65;10.60;;;8.50;21.80;;;;;;5085602;28;20089;-68
2021/11/20 10:09:31;;;;;;;17.95;10.77;;;8.50;21.60;;;;;;5082996;28;20044;-68
2021/11/20 10:12:16;;;;;;;19.83;10.73;;;8.50;21.30;;;;;;5082665;28;20173;-67
2021/11/20 10:14:46;;;;;;;;;;;8.50;21.20;;;;;;5085193;28;20503;-67
2021/11/20 10:17:20;;;;;;;16.20;9.40;;;8.60;20.40;;;;;;5078710;28;19920;-68
2021/11/20 10:19:54;;;;;;;18.52;9.70;;;8.60;20.80;;;;;;5081330;28;20150;-67
2021/11/20 10:22:30;;;;;;;14.55;9.68;;;8.60;20.00;;;;;;5086773;28;20453;-68
2021/11/20 10:25:21;;;;;;;20.60;10.82;;;8.70;20.20;;;;;;5081510;28;20163;-67
2021/11/20 10:28:15;;;;;;;14.75;9.68;;;8.70;19.50;;;;;;5082434;28;20044;-67
2021/11/20 10:30:55;;;;;;;15.02;9.52;;;8.80;19.40;;;;;;5074908;28;20531;-68
2021/11/20 10:33:32;;;;;;;15.25;8.23;;;8.60;18.70;;;;;;5086005;28;20068;-66
2021/11/20 10:36:06;;;;;;;13.10;7.82;;;8.60;18.40;;;;;;5081695;28;20048;-67
2021/11/20 10:38:40;;;;;;;8.63;5.97;;;8.70;18.00;;;;;;5086532;28;20507;-67
2021/11/20 10:41:11;;;;;;;13.23;6.72;;;8.60;16.50;;;;;;5072560;28;20739;-68
2021/11/20 10:43:42;;;;;;;9.88;5.43;;;8.70;15.90;;;;;;5083771;28;20051;-69
2021/11/20 10:46:23;;;;;;;12.77;6.57;;;8.60;15.30;;;;;;5084175;28;20055;-68
2021/11/20 10:49:18;;;;;;;14.40;7.07;;;8.80;15.20;;;;;;5082410;28;20097;-69
2021/11/20 10:51:59;;;;;;;12.60;6.78;;;8.90;15.00;;;;;;5079088;28;20063;-67
2021/11/20 10:54:51;;;;;;;11.73;7.43;;;8.80;15.00;;;;;;5082584;28;20044;-67
2021/11/20 10:57:55;;;;;;;14.05;8.77;;;8.80;15.10;;;;;;5085294;28;20134;-67
2021/11/20 11:00:32;;;;;;;10.95;7.10;;;8.80;15.00;;;;;;5083997;28;20523;-67
2021/11/20 11:03:27;;;;;;;10.27;7.13;;;8.80;15.00;;;;;;5078598;28;20032;-68
2021/11/20 11:06:25;;;;;;;12.35;7.75;;;9.00;15.10;;;;;;5078947;28;20048;-67
2021/11/20 11:08:57;;;;;;;14.10;8.27;;;8.90;14.80;;;;;;5082988;28;20163;-68
2021/11/20 11:11:33;;;;;;;16.52;8.30;;;8.90;15.10;;;;;;5089424;28;20119;-68
2021/11/20 11:14:52;;;;;;;13.38;8.85;;;9.00;15.40;;;;;;5078038;28;20051;-66
2021/11/20 11:17:47;;;;;;;12.25;7.72;;;8.80;15.80;;;;;;5020022;28;20034;-67
2021/11/20 11:20:22;;;;;;;17.00;9.52;;;8.90;16.40;;;;;;5080110;28;20385;-68
2021/11/20 11:22:58;;;;;;;12.93;8.13;;;9.00;15.90;;;;;;5080082;28;20052;-68
2021/11/20 11:25:49;;;;;;;12.77;6.20;;;8.80;15.00;;;;;;5079552;28;20579;-67
2021/11/20 11:28:31;;;;;;;8.40;4.57;;;8.80;14.80;;;;;;5083884;28;20160;-68
2021/11/20 11:31:30;;;;;;;8.57;5.93;;;8.60;12.80;;;;;;5080660;28;20659;-66
2021/11/20 11:34:03;;;;;;;7.35;5.65;;;8.80;14.00;;;;;;5079152;28;20416;-68
2021/11/20 11:36:38;;;;;;;8.18;5.72;;;8.90;12.60;;;;;;5079975;28;20911;-67
2021/11/20 11:39:32;;;;;;;7.85;5.78;;;8.80;11.60;;;;;;5060939;28;20085;-68
2021/11/20 11:42:23;;;;;;;8.00;6.00;;;8.80;12.00;;;;;;5059349;28;20131;-67
2021/11/20 11:44:59;;;;;;;8.90;6.00;;;8.70;12.50;;;;;;5059068;28;20488;-67
2021/11/20 11:47:47;;;;;;;9.07;5.70;;;8.70;12.50;;;;;;5063932;28;20198;-67
2021/11/20 11:50:43;;;;;;;9.60;6.18;;;8.90;12.50;;;;;;5081246;28;20043;-68
2021/11/20 11:53:30;;;;;;;11.40;7.78;;;9.00;12.60;;;;;;5080415;28;20044;-68
2021/11/20 11:56:00;;;;;;;11.52;7.75;;;8.90;13.80;;;;;;5077170;28;20109;-67
2021/11/20 11:58:57;;;;;;;12.73;8.25;;;8.90;14.20;;;;;;5083776;28;20055;-68
2021/11/20 12:01:45;;;;;;;12.13;7.67;;;8.90;15.10;;;;;;5079077;28;20062;-68
2021/11/20 12:04:18;;;;;;;10.95;7.18;;;8.70;14.10;;;;;;5079363;28;20294;-67
2021/11/20 12:07:30;;;;;;;13.18;7.55;;;8.90;15.60;;;;;;5078179;28;20043;-68
2021/11/20 12:10:30;;;;;;;13.20;7.93;;;8.90;14.50;;;;;;5061847;28;20859;-66
2021/11/20 12:13:04;;;;;;;12.50;7.97;;;8.90;15.10;;;;;;5080124;28;20499;-67
2021/11/20 12:15:40;;;;;;;12.23;7.85;;;9.00;14.40;;;;;;5082587;28;20040;-67
2021/11/20 12:18:30;;;;;;;10.45;7.05;;;8.90;13.60;;;;;;5084207;28;20052;-68
2021/11/20 12:21:03;;;;;;;12.70;7.88;;;9.00;13.90;;;;;;5082716;28;20079;-67
2021/11/20 12:23:48;;;;;;;12.10;7.85;;;8.80;14.30;;;;;;5082441;28;20078;-67
2021/11/20 12:26:21;;;;;;;12.77;7.65;;;8.70;14.90;;;;;;5083408;28;20066;-68
2021/11/20 12:29:36;;;;;;;13.73;9.07;;;8.90;15.00;;;;;;5083151;28;20051;-67
2021/11/20 12:32:20;;;;;;;14.98;8.15;;;8.80;15.00;;;;;;5074015;28;20041;-67
2021/11/20 12:35:05;;;;;;;9.60;6.95;;;8.80;15.60;;;;;;5081419;28;20064;-68
2021/11/20 12:37:53;;;;;;;13.40;8.15;;;8.70;14.40;;;;;;5079978;28;20070;-68
2021/11/20 12:40:46;;;;;;;9.32;6.63;;;8.90;15.00;;;;;;5079626;28;20041;-68
2021/11/20 12:43:33;;;;;;;11.02;7.28;;;8.90;14.40;;;;;;5078403;28;20385;-67
2021/11/20 12:46:21;;;;;;;9.68;6.90;;;9.00;14.10;;;;;;5083522;28;20105;-67
2021/11/20 12:49:16;;;;;;;10.07;6.78;;;8.90;13.90;;;;;;5083696;28;20225;-66
2021/11/20 12:51:59;;;;;;;9.77;6.60;;;9.00;14.00;;;;;;5079268;28;20036;-68
2021/11/20 12:54:50;;;;;;;13.93;7.45;;;9.00;13.90;;;;;;5081110;28;20037;-68
2021/11/20 12:57:26;;;;;;;10.02;6.28;;;9.00;13.00;;;;;;5080757;28;20108;-68
2021/11/20 12:59:58;;;;;;;11.63;7.22;;;9.00;12.90;;;;;;5080129;28;20097;-67
2021/11/20 13:02:54;;;;;;;9.95;6.60;;;9.00;12.90;;;;;;5077892;28;20479;-67
2021/11/20 13:05:31;;;;;;;10.50;6.53;;;8.90;12.50;;;;;;5082062;28;20054;-69
2021/11/20 13:08:03;;;;;;;10.95;7.55;;;9.00;12.30;;;;;;5086605;28;20040;-68
2021/11/20 13:10:40;;;;;;;11.93;6.93;;;8.80;13.30;;;;;;5081756;28;20036;-67
2021/11/20 13:13:21;;;;;;;12.55;7.20;;;8.90;13.40;;;;;;5079182;28;20048;-68
2021/11/20 13:16:29;;;;;;;9.65;7.05;;;8.80;13.10;;;;;;5086080;28;20072;-67
2021/11/20 13:19:06;;;;;;;10.68;7.07;;;8.90;13.00;;;;;;5085145;28;20079;-68
2021/11/20 13:21:37;;;;;;;9.35;7.43;;;8.90;12.70;;;;;;5082677;28;20044;-68